sensor_id;sensor_type;location;lat;lon;timestamp;P1;durP1;ratioP1;P2;durP2;ratioP2
29662;SDS011;16578;53.266;7.920;2022-07-22T00:00:49;4.75;;;1.30;;
29662;SDS011;16578;53.266;7.920;2022-07-22T00:03:15;5.05;;;1.73;;
29662;SDS011;16578;53.266;7.920;2022-07-22T00:05:40;5.25;;;1.60;;
29662;SDS011;16578;53.266;7.920;2022-07-22T00:08:06;2.95;;;1.35;;
29662;SDS011;16578;53.266;7.920;2022-07-22T00:10:32;4.03;;;1.17;;
29662;SDS011;16578;53.266;7.920;2022-07-22T00:12:57;3.15;;;1.30;;
29662;SDS011;16578;53.266;7.920;2022-07-22T00:15:23;3.65;;;1.50;;
29662;SDS011;16578;53.266;7.920;2022-07-22T00:17:49;2.90;;;1.25;;
29662;SDS011;16578;53.266;7.920;2022-07-22T00:20:14;5.18;;;1.70;;
29662;SDS011;16578;53.266;7.920;2022-07-22T00:22:40;5.15;;;1.67;;
29662;SDS011;16578;53.266;7.920;2022-07-22T00:25:06;3.78;;;1.13;;
29662;SDS011;16578;53.266;7.920;2022-07-22T00:27:32;4.05;;;1.50;;
29662;SDS011;16578;53.266;7.920;2022-07-22T00:29:57;6.55;;;1.50;;
29662;SDS011;16578;53.266;7.920;2022-07-22T00:32:23;4.30;;;1.50;;
29662;SDS011;16578;53.266;7.920;2022-07-22T00:34:49;4.32;;;1.50;;
29662;SDS011;16578;53.266;7.920;2022-07-22T00:37:14;3.53;;;1.45;;
29662;SDS011;16578;53.266;7.920;2022-07-22T00:39:40;4.40;;;1.55;;
29662;SDS011;16578;53.266;7.920;2022-07-22T00:42:05;4.15;;;1.30;;
29662;SDS011;16578;53.266;7.920;2022-07-22T00:44:31;2.67;;;1.38;;
29662;SDS011;16578;53.266;7.920;2022-07-22T00:46:56;5.60;;;1.73;;
29662;SDS011;16578;53.266;7.920;2022-07-22T00:49:22;3.17;;;1.40;;
29662;SDS011;16578;53.266;7.920;2022-07-22T00:51:48;4.43;;;1.48;;
29662;SDS011;16578;53.266;7.920;2022-07-22T00:54:14;5.43;;;1.65;;
29662;SDS011;16578;53.266;7.920;2022-07-22T00:56:39;3.60;;;1.63;;
29662;SDS011;16578;53.266;7.920;2022-07-22T00:59:07;4.68;;;1.90;;
29662;SDS011;16578;53.266;7.920;2022-07-22T01:01:34;4.63;;;1.70;;
29662;SDS011;16578;53.266;7.920;2022-07-22T01:04:00;3.55;;;1.85;;
29662;SDS011;16578;53.266;7.920;2022-07-22T01:06:27;5.63;;;1.95;;
29662;SDS011;16578;53.266;7.920;2022-07-22T01:08:54;4.95;;;1.90;;
29662;SDS011;16578;53.266;7.920;2022-07-22T01:11:21;3.67;;;1.67;;
29662;SDS011;16578;53.266;7.920;2022-07-22T01:13:47;6.47;;;2.05;;
29662;SDS011;16578;53.266;7.920;2022-07-22T01:16:13;4.80;;;1.65;;
29662;SDS011;16578;53.266;7.920;2022-07-22T01:18:40;5.07;;;1.90;;
29662;SDS011;16578;53.266;7.920;2022-07-22T01:21:06;4.75;;;1.73;;
29662;SDS011;16578;53.266;7.920;2022-07-22T01:23:34;4.85;;;1.80;;
29662;SDS011;16578;53.266;7.920;2022-07-22T01:25:59;4.28;;;1.40;;
29662;SDS011;16578;53.266;7.920;2022-07-22T01:28:25;4.63;;;1.80;;
29662;SDS011;16578;53.266;7.920;2022-07-22T01:30:51;4.80;;;1.88;;
29662;SDS011;16578;53.266;7.920;2022-07-22T01:33:17;2.65;;;1.55;;
29662;SDS011;16578;53.266;7.920;2022-07-22T01:35:44;4.85;;;1.85;;
29662;SDS011;16578;53.266;7.920;2022-07-22T01:38:10;3.40;;;1.40;;
29662;SDS011;16578;53.266;7.920;2022-07-22T01:40:36;3.20;;;1.80;;
29662;SDS011;16578;53.266;7.920;2022-07-22T01:43:02;4.18;;;1.55;;
29662;SDS011;16578;53.266;7.920;2022-07-22T01:45:27;3.58;;;1.50;;
29662;SDS011;16578;53.266;7.920;2022-07-22T01:47:53;4.25;;;1.80;;
29662;SDS011;16578;53.266;7.920;2022-07-22T01:50:19;3.53;;;1.13;;
29662;SDS011;16578;53.266;7.920;2022-07-22T01:52:44;3.28;;;1.60;;
29662;SDS011;16578;53.266;7.920;2022-07-22T01:55:10;5.88;;;1.50;;
29662;SDS011;16578;53.266;7.920;2022-07-22T01:57:37;4.70;;;1.30;;
29662;SDS011;16578;53.266;7.920;2022-07-22T02:00:06;4.20;;;1.80;;
29662;SDS011;16578;53.266;7.920;2022-07-22T02:02:33;2.58;;;1.38;;
29662;SDS011;16578;53.266;7.920;2022-07-22T02:04:59;4.13;;;1.60;;
29662;SDS011;16578;53.266;7.920;2022-07-22T02:07:25;3.33;;;1.35;;
29662;SDS011;16578;53.266;7.920;2022-07-22T02:09:51;4.97;;;1.65;;
29662;SDS011;16578;53.266;7.920;2022-07-22T02:12:17;2.67;;;1.63;;
29662;SDS011;16578;53.266;7.920;2022-07-22T02:14:43;3.92;;;1.42;;
29662;SDS011;16578;53.266;7.920;2022-07-22T02:17:09;3.08;;;1.60;;
29662;SDS011;16578;53.266;7.920;2022-07-22T02:19:34;4.25;;;1.70;;
29662;SDS011;16578;53.266;7.920;2022-07-22T02:22:00;5.15;;;1.98;;
29662;SDS011;16578;53.266;7.920;2022-07-22T02:24:25;4.18;;;1.60;;
29662;SDS011;16578;53.266;7.920;2022-07-22T02:26:51;6.35;;;1.77;;
29662;SDS011;16578;53.266;7.920;2022-07-22T02:29:16;7.95;;;2.13;;
29662;SDS011;16578;53.266;7.920;2022-07-22T02:31:42;3.53;;;1.77;;
29662;SDS011;16578;53.266;7.920;2022-07-22T02:34:08;7.18;;;2.00;;
29662;SDS011;16578;53.266;7.920;2022-07-22T02:36:33;5.80;;;2.13;;
29662;SDS011;16578;53.266;7.920;2022-07-22T02:38:59;3.10;;;1.95;;
29662;SDS011;16578;53.266;7.920;2022-07-22T02:41:24;3.53;;;1.70;;
29662;SDS011;16578;53.266;7.920;2022-07-22T02:43:50;2.97;;;1.90;;
29662;SDS011;16578;53.266;7.920;2022-07-22T02:46:18;4.20;;;2.08;;
29662;SDS011;16578;53.266;7.920;2022-07-22T02:48:45;5.35;;;2.10;;
29662;SDS011;16578;53.266;7.920;2022-07-22T02:51:11;4.28;;;2.08;;
29662;SDS011;16578;53.266;7.920;2022-07-22T02:53:37;6.13;;;2.28;;
29662;SDS011;16578;53.266;7.920;2022-07-22T02:56:02;6.07;;;2.60;;
29662;SDS011;16578;53.266;7.920;2022-07-22T02:58:28;5.35;;;2.03;;
29662;SDS011;16578;53.266;7.920;2022-07-22T03:00:53;5.07;;;2.40;;
29662;SDS011;16578;53.266;7.920;2022-07-22T03:03:19;5.13;;;2.17;;
29662;SDS011;16578;53.266;7.920;2022-07-22T03:05:44;4.13;;;1.70;;
29662;SDS011;16578;53.266;7.920;2022-07-22T03:08:10;6.75;;;2.50;;
29662;SDS011;16578;53.266;7.920;2022-07-22T03:10:36;6.78;;;2.35;;
29662;SDS011;16578;53.266;7.920;2022-07-22T03:13:02;4.65;;;1.60;;
29662;SDS011;16578;53.266;7.920;2022-07-22T03:15:28;4.70;;;1.88;;
29662;SDS011;16578;53.266;7.920;2022-07-22T03:17:53;5.07;;;1.98;;
29662;SDS011;16578;53.266;7.920;2022-07-22T03:20:19;4.95;;;1.95;;
29662;SDS011;16578;53.266;7.920;2022-07-22T03:22:44;5.07;;;2.05;;
29662;SDS011;16578;53.266;7.920;2022-07-22T03:25:10;5.38;;;2.08;;
29662;SDS011;16578;53.266;7.920;2022-07-22T03:27:36;6.50;;;2.83;;
29662;SDS011;16578;53.266;7.920;2022-07-22T03:30:03;9.25;;;2.50;;
29662;SDS011;16578;53.266;7.920;2022-07-22T03:32:31;5.38;;;2.22;;
29662;SDS011;16578;53.266;7.920;2022-07-22T03:34:57;8.18;;;2.38;;
29662;SDS011;16578;53.266;7.920;2022-07-22T03:37:22;8.07;;;2.17;;
29662;SDS011;16578;53.266;7.920;2022-07-22T03:39:48;9.63;;;2.75;;
29662;SDS011;16578;53.266;7.920;2022-07-22T03:42:13;5.05;;;2.47;;
29662;SDS011;16578;53.266;7.920;2022-07-22T03:44:39;9.15;;;2.50;;
29662;SDS011;16578;53.266;7.920;2022-07-22T03:47:05;4.45;;;2.17;;
29662;SDS011;16578;53.266;7.920;2022-07-22T03:49:30;7.40;;;2.63;;
29662;SDS011;16578;53.266;7.920;2022-07-22T03:51:56;8.75;;;2.63;;
29662;SDS011;16578;53.266;7.920;2022-07-22T03:54:22;4.68;;;2.35;;
29662;SDS011;16578;53.266;7.920;2022-07-22T03:56:48;5.78;;;2.50;;
29662;SDS011;16578;53.266;7.920;2022-07-22T03:59:14;4.60;;;2.33;;
29662;SDS011;16578;53.266;7.920;2022-07-22T04:01:40;6.68;;;2.58;;
29662;SDS011;16578;53.266;7.920;2022-07-22T04:04:06;6.93;;;2.25;;
29662;SDS011;16578;53.266;7.920;2022-07-22T04:06:32;5.78;;;2.35;;
29662;SDS011;16578;53.266;7.920;2022-07-22T04:08:57;5.07;;;2.40;;
29662;SDS011;16578;53.266;7.920;2022-07-22T04:11:23;6.18;;;2.38;;
29662;SDS011;16578;53.266;7.920;2022-07-22T04:13:49;5.43;;;2.50;;
29662;SDS011;16578;53.266;7.920;2022-07-22T04:16:14;6.22;;;2.28;;
29662;SDS011;16578;53.266;7.920;2022-07-22T04:18:40;7.40;;;2.35;;
29662;SDS011;16578;53.266;7.920;2022-07-22T04:21:05;5.03;;;2.03;;
29662;SDS011;16578;53.266;7.920;2022-07-22T04:23:31;7.25;;;2.47;;
29662;SDS011;16578;53.266;7.920;2022-07-22T04:25:57;7.75;;;2.72;;
29662;SDS011;16578;53.266;7.920;2022-07-22T04:28:22;7.15;;;2.70;;
29662;SDS011;16578;53.266;7.920;2022-07-22T04:30:48;6.38;;;2.75;;
29662;SDS011;16578;53.266;7.920;2022-07-22T04:33:13;6.18;;;2.38;;
29662;SDS011;16578;53.266;7.920;2022-07-22T04:35:39;5.78;;;2.58;;
29662;SDS011;16578;53.266;7.920;2022-07-22T04:38:04;6.82;;;2.50;;
29662;SDS011;16578;53.266;7.920;2022-07-22T04:40:30;6.93;;;2.40;;
29662;SDS011;16578;53.266;7.920;2022-07-22T04:42:55;7.85;;;2.20;;
29662;SDS011;16578;53.266;7.920;2022-07-22T04:45:21;6.97;;;2.67;;
29662;SDS011;16578;53.266;7.920;2022-07-22T04:47:47;6.97;;;2.60;;
29662;SDS011;16578;53.266;7.920;2022-07-22T04:50:12;6.80;;;3.10;;
29662;SDS011;16578;53.266;7.920;2022-07-22T04:52:38;6.45;;;2.63;;
29662;SDS011;16578;53.266;7.920;2022-07-22T04:55:03;7.25;;;2.60;;
29662;SDS011;16578;53.266;7.920;2022-07-22T04:57:29;4.63;;;2.55;;
29662;SDS011;16578;53.266;7.920;2022-07-22T04:59:55;7.07;;;2.60;;
29662;SDS011;16578;53.266;7.920;2022-07-22T05:02:20;4.60;;;2.63;;
29662;SDS011;16578;53.266;7.920;2022-07-22T05:04:46;8.10;;;2.47;;
29662;SDS011;16578;53.266;7.920;2022-07-22T05:07:11;6.25;;;2.75;;
29662;SDS011;16578;53.266;7.920;2022-07-22T05:09:37;6.43;;;2.80;;
29662;SDS011;16578;53.266;7.920;2022-07-22T05:12:03;7.18;;;2.78;;
29662;SDS011;16578;53.266;7.920;2022-07-22T05:14:29;7.68;;;3.50;;
29662;SDS011;16578;53.266;7.920;2022-07-22T05:16:55;6.78;;;2.25;;
29662;SDS011;16578;53.266;7.920;2022-07-22T05:19:21;7.50;;;2.50;;
29662;SDS011;16578;53.266;7.920;2022-07-22T05:21:46;7.03;;;2.85;;
29662;SDS011;16578;53.266;7.920;2022-07-22T05:24:12;7.40;;;3.05;;
29662;SDS011;16578;53.266;7.920;2022-07-22T05:26:37;7.45;;;2.60;;
29662;SDS011;16578;53.266;7.920;2022-07-22T05:29:03;4.80;;;2.65;;
29662;SDS011;16578;53.266;7.920;2022-07-22T05:31:29;7.63;;;3.08;;
29662;SDS011;16578;53.266;7.920;2022-07-22T05:33:55;7.35;;;3.03;;
29662;SDS011;16578;53.266;7.920;2022-07-22T05:36:20;8.43;;;2.72;;
29662;SDS011;16578;53.266;7.920;2022-07-22T05:38:46;6.57;;;2.63;;
29662;SDS011;16578;53.266;7.920;2022-07-22T05:41:12;5.18;;;2.60;;
29662;SDS011;16578;53.266;7.920;2022-07-22T05:43:37;8.65;;;3.00;;
29662;SDS011;16578;53.266;7.920;2022-07-22T05:46:03;5.13;;;2.63;;
29662;SDS011;16578;53.266;7.920;2022-07-22T05:48:29;6.13;;;2.53;;
29662;SDS011;16578;53.266;7.920;2022-07-22T05:50:55;4.47;;;2.53;;
29662;SDS011;16578;53.266;7.920;2022-07-22T05:53:21;5.85;;;2.70;;
29662;SDS011;16578;53.266;7.920;2022-07-22T05:55:46;5.72;;;2.45;;
29662;SDS011;16578;53.266;7.920;2022-07-22T05:58:12;5.50;;;2.53;;
29662;SDS011;16578;53.266;7.920;2022-07-22T06:00:38;10.60;;;2.53;;
29662;SDS011;16578;53.266;7.920;2022-07-22T06:03:04;5.63;;;2.30;;
29662;SDS011;16578;53.266;7.920;2022-07-22T06:05:30;6.47;;;2.22;;
29662;SDS011;16578;53.266;7.920;2022-07-22T06:07:56;2.92;;;2.10;;
29662;SDS011;16578;53.266;7.920;2022-07-22T06:10:22;6.00;;;2.35;;
29662;SDS011;16578;53.266;7.920;2022-07-22T06:12:48;5.00;;;2.22;;
29662;SDS011;16578;53.266;7.920;2022-07-22T06:15:13;5.88;;;2.58;;
29662;SDS011;16578;53.266;7.920;2022-07-22T06:17:39;5.28;;;2.00;;
29662;SDS011;16578;53.266;7.920;2022-07-22T06:20:05;6.82;;;2.33;;
29662;SDS011;16578;53.266;7.920;2022-07-22T06:22:31;5.93;;;2.53;;
29662;SDS011;16578;53.266;7.920;2022-07-22T06:24:56;4.68;;;2.42;;
29662;SDS011;16578;53.266;7.920;2022-07-22T06:27:22;6.97;;;2.53;;
29662;SDS011;16578;53.266;7.920;2022-07-22T06:29:47;7.03;;;2.63;;
29662;SDS011;16578;53.266;7.920;2022-07-22T06:32:13;5.65;;;2.65;;
29662;SDS011;16578;53.266;7.920;2022-07-22T06:34:39;6.10;;;2.60;;
29662;SDS011;16578;53.266;7.920;2022-07-22T06:37:04;7.88;;;2.70;;
29662;SDS011;16578;53.266;7.920;2022-07-22T06:39:30;4.72;;;2.22;;
29662;SDS011;16578;53.266;7.920;2022-07-22T06:41:55;8.38;;;2.42;;
29662;SDS011;16578;53.266;7.920;2022-07-22T06:44:21;5.20;;;2.30;;
29662;SDS011;16578;53.266;7.920;2022-07-22T06:46:47;7.18;;;2.67;;
29662;SDS011;16578;53.266;7.920;2022-07-22T06:49:12;5.75;;;1.98;;
29662;SDS011;16578;53.266;7.920;2022-07-22T06:51:38;9.30;;;3.17;;
29662;SDS011;16578;53.266;7.920;2022-07-22T06:54:04;6.22;;;2.65;;
29662;SDS011;16578;53.266;7.920;2022-07-22T06:56:29;3.85;;;2.33;;
29662;SDS011;16578;53.266;7.920;2022-07-22T06:58:55;8.48;;;2.63;;
29662;SDS011;16578;53.266;7.920;2022-07-22T07:01:20;4.82;;;2.33;;
29662;SDS011;16578;53.266;7.920;2022-07-22T07:03:46;8.80;;;2.67;;
29662;SDS011;16578;53.266;7.920;2022-07-22T07:06:12;6.63;;;2.80;;
29662;SDS011;16578;53.266;7.920;2022-07-22T07:08:38;5.28;;;2.10;;
29662;SDS011;16578;53.266;7.920;2022-07-22T07:11:05;5.13;;;2.20;;
29662;SDS011;16578;53.266;7.920;2022-07-22T07:13:31;4.95;;;2.10;;
29662;SDS011;16578;53.266;7.920;2022-07-22T07:15:57;3.85;;;2.22;;
29662;SDS011;16578;53.266;7.920;2022-07-22T07:18:23;5.40;;;2.35;;
29662;SDS011;16578;53.266;7.920;2022-07-22T07:20:48;5.43;;;2.10;;
29662;SDS011;16578;53.266;7.920;2022-07-22T07:23:14;4.65;;;1.90;;
29662;SDS011;16578;53.266;7.920;2022-07-22T07:25:40;4.63;;;2.10;;
29662;SDS011;16578;53.266;7.920;2022-07-22T07:28:05;4.65;;;2.22;;
29662;SDS011;16578;53.266;7.920;2022-07-22T07:30:31;5.43;;;2.20;;
29662;SDS011;16578;53.266;7.920;2022-07-22T07:32:57;5.90;;;2.00;;
29662;SDS011;16578;53.266;7.920;2022-07-22T07:35:25;4.38;;;1.65;;
29662;SDS011;16578;53.266;7.920;2022-07-22T07:37:51;4.18;;;1.90;;
29662;SDS011;16578;53.266;7.920;2022-07-22T07:40:17;4.60;;;1.63;;
29662;SDS011;16578;53.266;7.920;2022-07-22T07:42:42;6.20;;;1.67;;
29662;SDS011;16578;53.266;7.920;2022-07-22T07:45:08;5.80;;;2.00;;
29662;SDS011;16578;53.266;7.920;2022-07-22T07:47:34;4.20;;;1.67;;
29662;SDS011;16578;53.266;7.920;2022-07-22T07:49:59;6.72;;;1.80;;
29662;SDS011;16578;53.266;7.920;2022-07-22T07:52:27;5.50;;;1.90;;
29662;SDS011;16578;53.266;7.920;2022-07-22T07:54:53;4.00;;;1.65;;
29662;SDS011;16578;53.266;7.920;2022-07-22T07:57:20;4.47;;;1.80;;
29662;SDS011;16578;53.266;7.920;2022-07-22T07:59:46;2.40;;;1.48;;
29662;SDS011;16578;53.266;7.920;2022-07-22T08:02:12;2.95;;;1.60;;
29662;SDS011;16578;53.266;7.920;2022-07-22T08:04:38;4.68;;;1.90;;
29662;SDS011;16578;53.266;7.920;2022-07-22T08:07:04;5.97;;;2.03;;
29662;SDS011;16578;53.266;7.920;2022-07-22T08:09:30;4.47;;;1.70;;
29662;SDS011;16578;53.266;7.920;2022-07-22T08:11:56;2.25;;;1.45;;
29662;SDS011;16578;53.266;7.920;2022-07-22T08:14:22;6.88;;;2.08;;
29662;SDS011;16578;53.266;7.920;2022-07-22T08:16:48;4.22;;;1.80;;
29662;SDS011;16578;53.266;7.920;2022-07-22T08:19:14;3.08;;;1.63;;
29662;SDS011;16578;53.266;7.920;2022-07-22T08:21:40;5.05;;;1.60;;
29662;SDS011;16578;53.266;7.920;2022-07-22T08:24:06;3.45;;;1.60;;
29662;SDS011;16578;53.266;7.920;2022-07-22T08:26:34;2.73;;;1.40;;
29662;SDS011;16578;53.266;7.920;2022-07-22T08:28:59;4.05;;;1.92;;
29662;SDS011;16578;53.266;7.920;2022-07-22T08:31:26;2.83;;;1.30;;
29662;SDS011;16578;53.266;7.920;2022-07-22T08:33:52;3.17;;;1.50;;
29662;SDS011;16578;53.266;7.920;2022-07-22T08:36:18;4.22;;;1.55;;
29662;SDS011;16578;53.266;7.920;2022-07-22T08:38:43;3.53;;;1.70;;
29662;SDS011;16578;53.266;7.920;2022-07-22T08:41:09;3.92;;;1.50;;
29662;SDS011;16578;53.266;7.920;2022-07-22T08:43:37;3.40;;;1.58;;
29662;SDS011;16578;53.266;7.920;2022-07-22T08:46:06;7.50;;;1.83;;
29662;SDS011;16578;53.266;7.920;2022-07-22T08:48:32;4.45;;;1.52;;
29662;SDS011;16578;53.266;7.920;2022-07-22T08:50:58;5.80;;;1.60;;
29662;SDS011;16578;53.266;7.920;2022-07-22T08:53:23;3.58;;;1.77;;
29662;SDS011;16578;53.266;7.920;2022-07-22T08:55:49;4.93;;;1.83;;
29662;SDS011;16578;53.266;7.920;2022-07-22T08:58:15;7.75;;;2.00;;
29662;SDS011;16578;53.266;7.920;2022-07-22T09:00:42;6.20;;;1.52;;
29662;SDS011;16578;53.266;7.920;2022-07-22T09:03:21;8.23;;;1.80;;
29662;SDS011;16578;53.266;7.920;2022-07-22T09:05:50;9.60;;;2.00;;
29662;SDS011;16578;53.266;7.920;2022-07-22T09:08:17;3.97;;;1.55;;
29662;SDS011;16578;53.266;7.920;2022-07-22T09:10:43;4.82;;;1.90;;
29662;SDS011;16578;53.266;7.920;2022-07-22T09:13:09;5.43;;;1.75;;
29662;SDS011;16578;53.266;7.920;2022-07-22T09:15:36;3.80;;;2.00;;
29662;SDS011;16578;53.266;7.920;2022-07-22T09:18:06;5.22;;;2.20;;
29662;SDS011;16578;53.266;7.920;2022-07-22T09:20:33;2.75;;;1.35;;
29662;SDS011;16578;53.266;7.920;2022-07-22T09:23:00;5.30;;;1.80;;
29662;SDS011;16578;53.266;7.920;2022-07-22T09:25:36;3.08;;;1.50;;
29662;SDS011;16578;53.266;7.920;2022-07-22T09:30:33;4.88;;;1.90;;
29662;SDS011;16578;53.266;7.920;2022-07-22T09:35:25;4.20;;;1.70;;
29662;SDS011;16578;53.266;7.920;2022-07-22T09:37:53;2.72;;;1.48;;
29662;SDS011;16578;53.266;7.920;2022-07-22T09:40:22;5.50;;;1.27;;
29662;SDS011;16578;53.266;7.920;2022-07-22T09:42:57;3.35;;;1.20;;
29662;SDS011;16578;53.266;7.920;2022-07-22T09:45:25;3.38;;;1.42;;
29662;SDS011;16578;53.266;7.920;2022-07-22T09:47:56;3.00;;;1.25;;
29662;SDS011;16578;53.266;7.920;2022-07-22T09:50:23;2.10;;;1.15;;
29662;SDS011;16578;53.266;7.920;2022-07-22T09:52:51;3.70;;;1.92;;
29662;SDS011;16578;53.266;7.920;2022-07-22T09:55:19;2.67;;;1.30;;
29662;SDS011;16578;53.266;7.920;2022-07-22T09:57:47;4.38;;;1.60;;
29662;SDS011;16578;53.266;7.920;2022-07-22T10:00:15;7.65;;;1.88;;
29662;SDS011;16578;53.266;7.920;2022-07-22T10:02:50;5.85;;;1.50;;
29662;SDS011;16578;53.266;7.920;2022-07-22T10:05:25;2.97;;;1.42;;
29662;SDS011;16578;53.266;7.920;2022-07-22T10:07:52;3.05;;;1.30;;
29662;SDS011;16578;53.266;7.920;2022-07-22T10:10:20;4.70;;;1.60;;
29662;SDS011;16578;53.266;7.920;2022-07-22T10:12:51;2.63;;;1.20;;
29662;SDS011;16578;53.266;7.920;2022-07-22T10:15:18;2.53;;;1.05;;
29662;SDS011;16578;53.266;7.920;2022-07-22T10:17:45;4.32;;;1.25;;
29662;SDS011;16578;53.266;7.920;2022-07-22T10:25:11;3.17;;;1.30;;
29662;SDS011;16578;53.266;7.920;2022-07-22T10:30:14;4.82;;;1.30;;
29662;SDS011;16578;53.266;7.920;2022-07-22T10:32:42;2.85;;;1.20;;
29662;SDS011;16578;53.266;7.920;2022-07-22T10:45:25;2.58;;;1.20;;
29662;SDS011;16578;53.266;7.920;2022-07-22T10:47:59;5.78;;;1.48;;
29662;SDS011;16578;53.266;7.920;2022-07-22T10:53:02;3.75;;;1.50;;
29662;SDS011;16578;53.266;7.920;2022-07-22T10:55:29;5.53;;;1.40;;
29662;SDS011;16578;53.266;7.920;2022-07-22T10:57:54;4.22;;;1.58;;
29662;SDS011;16578;53.266;7.920;2022-07-22T11:00:20;2.95;;;1.23;;
29662;SDS011;16578;53.266;7.920;2022-07-22T11:02:46;3.33;;;1.38;;
29662;SDS011;16578;53.266;7.920;2022-07-22T11:05:12;5.82;;;1.60;;
29662;SDS011;16578;53.266;7.920;2022-07-22T11:07:41;2.10;;;1.00;;
29662;SDS011;16578;53.266;7.920;2022-07-22T11:10:18;2.97;;;1.25;;
29662;SDS011;16578;53.266;7.920;2022-07-22T11:12:45;3.40;;;1.20;;
29662;SDS011;16578;53.266;7.920;2022-07-22T11:15:12;7.43;;;1.83;;
29662;SDS011;16578;53.266;7.920;2022-07-22T11:17:38;4.05;;;1.23;;
29662;SDS011;16578;53.266;7.920;2022-07-22T11:20:05;4.47;;;1.42;;
29662;SDS011;16578;53.266;7.920;2022-07-22T11:25:03;3.85;;;1.30;;
29662;SDS011;16578;53.266;7.920;2022-07-22T11:27:30;1.98;;;1.17;;
29662;SDS011;16578;53.266;7.920;2022-07-22T11:29:56;2.05;;;1.08;;
29662;SDS011;16578;53.266;7.920;2022-07-22T11:32:23;3.13;;;1.30;;
29662;SDS011;16578;53.266;7.920;2022-07-22T11:34:50;3.42;;;1.20;;
29662;SDS011;16578;53.266;7.920;2022-07-22T11:37:17;3.70;;;1.50;;
29662;SDS011;16578;53.266;7.920;2022-07-22T11:39:44;3.20;;;1.25;;
29662;SDS011;16578;53.266;7.920;2022-07-22T11:42:11;3.53;;;1.25;;
29662;SDS011;16578;53.266;7.920;2022-07-22T11:44:38;1.52;;;1.02;;
29662;SDS011;16578;53.266;7.920;2022-07-22T11:47:05;3.78;;;1.40;;
29662;SDS011;16578;53.266;7.920;2022-07-22T11:49:32;2.85;;;1.23;;
29662;SDS011;16578;53.266;7.920;2022-07-22T11:52:00;4.07;;;1.17;;
29662;SDS011;16578;53.266;7.920;2022-07-22T11:54:27;2.83;;;1.30;;
29662;SDS011;16578;53.266;7.920;2022-07-22T11:56:53;10.27;;;1.80;;
29662;SDS011;16578;53.266;7.920;2022-07-22T11:59:19;3.50;;;1.27;;
29662;SDS011;16578;53.266;7.920;2022-07-22T12:01:46;2.22;;;1.25;;
29662;SDS011;16578;53.266;7.920;2022-07-22T12:04:25;4.55;;;1.50;;
29662;SDS011;16578;53.266;7.920;2022-07-22T12:06:51;5.35;;;1.35;;
29662;SDS011;16578;53.266;7.920;2022-07-22T12:11:47;2.30;;;1.17;;
29662;SDS011;16578;53.266;7.920;2022-07-22T12:14:18;3.70;;;1.02;;
29662;SDS011;16578;53.266;7.920;2022-07-22T12:16:56;1.65;;;0.98;;
29662;SDS011;16578;53.266;7.920;2022-07-22T12:19:34;2.22;;;1.13;;
29662;SDS011;16578;53.266;7.920;2022-07-22T12:29:43;4.65;;;1.13;;
29662;SDS011;16578;53.266;7.920;2022-07-22T12:37:20;2.45;;;1.13;;
29662;SDS011;16578;53.266;7.920;2022-07-22T12:42:22;3.67;;;1.25;;
29662;SDS011;16578;53.266;7.920;2022-07-22T12:44:50;4.68;;;1.85;;
29662;SDS011;16578;53.266;7.920;2022-07-22T12:47:17;5.55;;;1.70;;
29662;SDS011;16578;53.266;7.920;2022-07-22T12:50:15;2.70;;;1.25;;
29662;SDS011;16578;53.266;7.920;2022-07-22T12:52:40;2.67;;;1.30;;
29662;SDS011;16578;53.266;7.920;2022-07-22T12:55:06;2.80;;;1.40;;
29662;SDS011;16578;53.266;7.920;2022-07-22T12:57:32;2.70;;;1.30;;
29662;SDS011;16578;53.266;7.920;2022-07-22T12:59:57;3.50;;;1.20;;
29662;SDS011;16578;53.266;7.920;2022-07-22T13:02:23;3.10;;;1.25;;
29662;SDS011;16578;53.266;7.920;2022-07-22T13:04:48;3.30;;;1.48;;
29662;SDS011;16578;53.266;7.920;2022-07-22T13:07:14;5.35;;;1.45;;
29662;SDS011;16578;53.266;7.920;2022-07-22T13:09:39;1.63;;;1.10;;
29662;SDS011;16578;53.266;7.920;2022-07-22T13:12:05;2.17;;;1.27;;
29662;SDS011;16578;53.266;7.920;2022-07-22T13:14:31;3.00;;;1.30;;
29662;SDS011;16578;53.266;7.920;2022-07-22T13:16:56;1.83;;;1.20;;
29662;SDS011;16578;53.266;7.920;2022-07-22T13:19:22;5.07;;;1.50;;
29662;SDS011;16578;53.266;7.920;2022-07-22T13:21:47;3.72;;;1.20;;
29662;SDS011;16578;53.266;7.920;2022-07-22T13:24:13;4.50;;;1.35;;
29662;SDS011;16578;53.266;7.920;2022-07-22T13:26:39;2.28;;;1.30;;
29662;SDS011;16578;53.266;7.920;2022-07-22T13:29:05;3.30;;;1.20;;
29662;SDS011;16578;53.266;7.920;2022-07-22T13:31:30;2.97;;;1.40;;
29662;SDS011;16578;53.266;7.920;2022-07-22T13:33:56;1.60;;;1.20;;
29662;SDS011;16578;53.266;7.920;2022-07-22T13:36:21;2.17;;;1.20;;
29662;SDS011;16578;53.266;7.920;2022-07-22T13:38:48;3.17;;;1.23;;
29662;SDS011;16578;53.266;7.920;2022-07-22T13:41:14;2.88;;;1.30;;
